createdAt,value
2018-10-09T00:00:40.513Z,12.40
2018-10-09T00:01:40.397Z,15.10
2018-10-09T00:02:40.336Z,15.40
2018-10-09T00:03:40.304Z,12.90
2018-10-09T00:04:40.281Z,14.10
2018-10-09T00:05:40.239Z,11.80
2018-10-09T00:06:40.168Z,13.80
2018-10-09T00:07:40.126Z,14.30
2018-10-09T00:08:40.095Z,13.20
2018-10-09T00:09:40.063Z,12.50
2018-10-09T00:10:40.013Z,12.80
2018-10-09T00:11:39.964Z,11.80
2018-10-09T00:12:39.926Z,10.90
2018-10-09T00:13:39.906Z,14.60
2018-10-09T00:14:39.825Z,13.30
2018-10-09T00:15:39.820Z,12.80
2018-10-09T00:16:39.745Z,12.10
2018-10-09T00:17:39.713Z,12.40
2018-10-09T00:18:39.657Z,12.00
2018-10-09T00:19:39.621Z,14.80
2018-10-09T00:20:39.569Z,11.50
2018-10-09T00:21:39.566Z,15.20
2018-10-09T00:22:39.486Z,11.30
2018-10-09T00:23:39.455Z,13.80
2018-10-09T00:24:39.398Z,12.40
2018-10-09T00:25:39.382Z,12.60
2018-10-09T00:26:39.365Z,13.90
2018-10-09T00:27:39.274Z,13.30
2018-10-09T00:28:39.236Z,13.70
2018-10-09T00:29:39.187Z,11.60
2018-10-09T00:30:39.151Z,10.50
2018-10-09T00:31:39.092Z,12.30
2018-10-09T00:32:39.736Z,11.00
2018-10-09T00:33:39.032Z,13.30
2018-10-09T00:34:38.965Z,12.40
2018-10-09T00:35:38.921Z,15.20
2018-10-09T00:36:38.896Z,14.70
2018-10-09T00:37:38.870Z,15.50
2018-10-09T00:38:38.801Z,18.90
2018-10-09T00:39:38.767Z,18.30
2018-10-09T00:40:38.717Z,18.60
2018-10-09T00:41:38.670Z,17.20
2018-10-09T00:42:38.654Z,15.60
2018-10-09T00:43:38.609Z,15.30
2018-10-09T00:44:38.540Z,15.10
2018-10-09T00:45:38.498Z,12.80
2018-10-09T00:46:38.495Z,16.90
2018-10-09T00:47:38.420Z,14.40
2018-10-09T00:48:38.407Z,13.40
2018-10-09T00:49:38.338Z,14.70
2018-10-09T00:50:38.288Z,14.20
2018-10-09T00:51:38.284Z,16.80
2018-10-09T00:52:38.200Z,16.10
2018-10-09T00:53:38.194Z,13.20
2018-10-09T00:54:38.119Z,13.00
2018-10-09T00:55:38.086Z,13.10
2018-10-09T00:56:38.025Z,14.70
2018-10-09T00:57:37.988Z,14.50
2018-10-09T00:58:37.972Z,13.90
2018-10-09T00:59:37.920Z,14.20
2018-10-09T01:00:37.860Z,16.20
2018-10-09T01:01:37.824Z,13.30
2018-10-09T01:02:37.788Z,14.30
2018-10-09T01:03:37.752Z,14.70
2018-10-09T01:04:37.710Z,18.50
2018-10-09T01:05:37.654Z,16.70
2018-10-09T01:06:37.624Z,16.60
2018-10-09T01:07:37.566Z,18.40
2018-10-09T01:08:37.523Z,18.10
2018-10-09T01:09:37.525Z,16.20
2018-10-09T01:10:37.443Z,14.40
2018-10-09T01:11:37.394Z,20.00
2018-10-09T01:12:37.359Z,20.40
2018-10-09T01:13:37.323Z,19.20
2018-10-09T01:14:37.307Z,19.90
2018-10-09T01:15:37.224Z,19.80
2018-10-09T01:16:37.174Z,17.80
2018-10-09T01:17:37.132Z,19.00
2018-10-09T01:18:37.097Z,19.10
2018-10-09T01:19:37.092Z,17.70
2018-10-09T01:20:37.001Z,19.00
2018-10-09T01:21:36.955Z,15.50
2018-10-09T01:22:36.937Z,18.10
2018-10-09T01:23:36.894Z,18.60
2018-10-09T01:24:36.867Z,19.30
2018-10-09T01:25:36.795Z,16.90
2018-10-09T01:26:36.742Z,19.40
2018-10-09T01:27:36.715Z,19.70
2018-10-09T01:28:36.662Z,19.60
2018-10-09T01:29:36.620Z,14.30
2018-10-09T01:30:36.620Z,18.90
2018-10-09T01:31:36.541Z,17.20
2018-10-09T01:32:36.505Z,18.60
2018-10-09T01:33:36.456Z,17.60
2018-10-09T01:34:36.402Z,14.90
2018-10-09T01:35:36.387Z,19.00
2018-10-09T01:36:36.322Z,23.10
2018-10-09T01:37:36.276Z,15.50
2018-10-09T01:38:36.226Z,15.00
2018-10-09T01:39:36.184Z,14.80
2018-10-09T01:40:36.168Z,15.60
2018-10-09T01:41:36.098Z,17.60
2018-10-09T01:42:36.073Z,16.30
2018-10-09T01:43:36.024Z,17.00
2018-10-09T01:44:35.979Z,17.70
2018-10-09T01:45:35.937Z,16.00
2018-10-09T01:46:35.912Z,18.40
2018-10-09T01:47:35.844Z,17.30
2018-10-09T01:48:35.800Z,18.60
2018-10-09T01:49:35.754Z,21.10
2018-10-09T01:50:35.722Z,25.60
2018-10-09T01:51:35.703Z,17.30
2018-10-09T01:52:35.628Z,18.10
2018-10-09T01:53:35.589Z,18.60
2018-10-09T01:54:35.549Z,19.70
2018-10-09T01:55:35.510Z,21.20
2018-10-09T01:56:35.492Z,16.30
2018-10-09T01:57:35.418Z,15.80
2018-10-09T01:58:35.378Z,16.60
2018-10-09T01:59:35.330Z,17.50
2018-10-09T02:00:35.288Z,17.40
2018-10-09T02:01:35.244Z,16.00
2018-10-09T02:02:35.231Z,17.60
2018-10-09T02:03:35.166Z,20.90
2018-10-09T02:04:35.129Z,19.50
2018-10-09T02:05:35.101Z,19.80
2018-10-09T02:06:35.030Z,20.10
2018-10-09T02:07:35.011Z,19.40
2018-10-09T02:08:34.950Z,17.20
2018-10-09T02:09:34.907Z,17.50
2018-10-09T02:10:34.858Z,20.20
2018-10-09T02:11:34.814Z,17.60
2018-10-09T02:12:34.794Z,17.80
2018-10-09T02:13:34.730Z,17.90
2018-10-09T02:14:34.696Z,20.20
2018-10-09T02:15:34.651Z,19.10
2018-10-09T02:16:34.610Z,18.90
2018-10-09T02:17:34.591Z,19.00
2018-10-09T02:18:34.520Z,20.40
2018-10-09T02:19:34.473Z,20.80
2018-10-09T02:20:34.431Z,19.10
2018-10-09T02:21:34.413Z,32.70
2018-10-09T02:22:34.353Z,30.60
2018-10-09T02:23:34.331Z,18.30
2018-10-09T02:24:34.259Z,18.40
2018-10-09T02:25:34.232Z,27.00
2018-10-09T02:26:34.182Z,25.60
2018-10-09T02:27:34.160Z,27.20
2018-10-09T02:28:34.120Z,21.30
2018-10-09T02:29:34.059Z,24.00
2018-10-09T02:30:34.002Z,23.70
2018-10-09T02:31:33.960Z,25.70
2018-10-09T02:32:33.945Z,19.00
2018-10-09T02:33:33.922Z,20.90
2018-10-09T02:34:33.841Z,20.70
2018-10-09T02:35:33.806Z,21.80
2018-10-09T02:36:33.757Z,22.10
2018-10-09T02:37:33.712Z,21.20
2018-10-09T02:38:33.660Z,23.40
2018-10-09T02:39:33.642Z,23.50
2018-10-09T02:40:33.583Z,19.90
2018-10-09T02:41:33.545Z,22.30
2018-10-09T02:42:33.491Z,17.20
2018-10-09T02:43:33.449Z,19.20
2018-10-09T02:44:33.429Z,26.10
2018-10-09T02:45:33.367Z,20.50
2018-10-09T02:46:33.327Z,18.50
2018-10-09T02:47:33.286Z,21.30
2018-10-09T02:48:33.244Z,20.70
2018-10-09T02:49:33.224Z,25.10
2018-10-09T02:50:33.147Z,21.30
2018-10-09T02:51:33.107Z,25.10
2018-10-09T02:52:33.066Z,23.30
2018-10-09T02:53:33.022Z,22.90
2018-10-09T02:54:33.005Z,20.70
2018-10-09T02:55:32.968Z,21.80
2018-10-09T02:56:32.895Z,22.20
2018-10-09T02:57:32.851Z,22.80
2018-10-09T02:58:32.817Z,22.40
2018-10-09T02:59:32.775Z,21.80
2018-10-09T03:00:32.752Z,18.80
2018-10-09T03:01:32.688Z,20.40
2018-10-09T03:02:32.637Z,17.80
2018-10-09T03:03:32.596Z,19.10
2018-10-09T03:04:32.551Z,20.40
2018-10-09T03:05:32.532Z,19.70
2018-10-09T03:06:32.475Z,21.10
2018-10-09T03:07:32.431Z,18.70
2018-10-09T03:08:32.417Z,21.60
2018-10-09T03:09:32.348Z,18.90
2018-10-09T03:10:32.324Z,19.40
2018-10-09T03:11:32.256Z,21.30
2018-10-09T03:12:32.221Z,21.10
2018-10-09T03:13:32.179Z,18.80
2018-10-09T03:14:32.128Z,19.60
2018-10-09T03:15:32.088Z,20.80
2018-10-09T03:16:32.071Z,19.00
2018-10-09T03:17:32.005Z,18.90
2018-10-09T03:18:31.967Z,20.00
2018-10-09T03:19:31.924Z,20.80
2018-10-09T03:20:31.896Z,18.30
2018-10-09T03:21:31.867Z,18.80
2018-10-09T03:22:31.788Z,19.60
2018-10-09T03:23:31.746Z,18.00
2018-10-09T03:24:31.702Z,19.20
2018-10-09T03:25:31.664Z,18.60
2018-10-09T03:26:31.652Z,18.20
2018-10-09T03:27:31.586Z,19.00
2018-10-09T03:28:31.535Z,17.40
2018-10-09T03:29:31.492Z,17.40
2018-10-09T03:30:31.462Z,19.00
2018-10-09T03:31:31.417Z,17.10
2018-10-09T03:32:31.397Z,18.10
2018-10-09T03:33:31.329Z,18.90
2018-10-09T03:34:31.278Z,19.30
2018-10-09T03:35:31.239Z,17.30
2018-10-09T03:36:31.197Z,16.90
2018-10-09T03:37:31.150Z,17.60
2018-10-09T03:38:31.140Z,18.40
2018-10-09T03:39:31.074Z,18.30
2018-10-09T03:40:31.033Z,16.10
2018-10-09T03:41:30.990Z,20.20
2018-10-09T03:42:30.964Z,18.20
2018-10-09T03:43:30.902Z,18.70
2018-10-09T03:44:30.890Z,16.30
2018-10-09T03:45:30.822Z,18.70
2018-10-09T03:46:30.773Z,17.00
2018-10-09T03:47:30.731Z,20.90
2018-10-09T03:48:30.686Z,18.60
2018-10-09T03:49:30.677Z,16.90
2018-10-09T03:50:30.613Z,20.90
2018-10-09T03:51:30.575Z,18.40
2018-10-09T03:52:30.526Z,20.40
2018-10-09T03:53:30.484Z,18.20
2018-10-09T03:54:30.435Z,18.40
2018-10-09T03:55:30.415Z,20.90
2018-10-09T03:56:30.351Z,17.70
2018-10-09T03:57:30.309Z,17.20
2018-10-09T03:58:30.295Z,18.80
2018-10-09T03:59:30.232Z,18.70
2018-10-09T04:00:30.182Z,17.00
2018-10-09T04:01:30.141Z,18.50
2018-10-09T04:02:30.104Z,19.40
2018-10-09T04:03:30.087Z,17.00
2018-10-09T04:04:30.042Z,20.50
2018-10-09T04:05:29.978Z,17.70
2018-10-09T04:06:29.935Z,17.90
2018-10-09T04:07:29.888Z,20.00
2018-10-09T04:08:29.844Z,19.10
2018-10-09T04:09:29.896Z,19.30
2018-10-09T04:10:29.767Z,19.60
2018-10-09T04:11:29.723Z,18.50
2018-10-09T04:12:29.737Z,17.50
2018-10-09T04:13:29.644Z,16.90
2018-10-09T04:14:29.590Z,19.60
2018-10-09T04:15:29.572Z,17.70
2018-10-09T04:16:29.513Z,19.30
2018-10-09T04:17:29.472Z,18.30
2018-10-09T04:18:29.423Z,20.40
2018-10-09T04:19:29.455Z,18.00
2018-10-09T04:20:29.337Z,18.90
2018-10-09T04:21:29.297Z,19.30
2018-10-09T04:22:29.288Z,18.80
2018-10-09T04:23:29.218Z,17.90
2018-10-09T04:24:29.199Z,16.80
2018-10-09T04:25:29.136Z,16.30
2018-10-09T04:26:29.085Z,16.40
2018-10-09T04:27:29.071Z,18.70
2018-10-09T04:28:29.000Z,17.10
2018-10-09T04:29:29.014Z,20.70
2018-10-09T04:30:28.946Z,19.20
2018-10-09T04:31:28.884Z,17.40
2018-10-09T04:32:28.831Z,16.10
2018-10-09T04:33:28.788Z,17.60
2018-10-09T04:34:28.756Z,21.50
2018-10-09T04:35:28.770Z,18.40
2018-10-09T04:36:28.680Z,18.30
2018-10-09T04:37:28.628Z,17.90
2018-10-09T04:38:28.579Z,19.60
2018-10-09T04:39:28.536Z,19.40
2018-10-09T04:40:28.516Z,17.80
2018-10-09T04:41:28.454Z,22.70
2018-10-09T04:42:28.419Z,17.90
2018-10-09T04:43:28.374Z,18.30
2018-10-09T04:44:28.331Z,20.60
2018-10-09T04:45:28.339Z,19.00
2018-10-09T04:46:28.241Z,18.40
2018-10-09T04:47:28.199Z,19.40
2018-10-09T04:48:28.168Z,18.90
2018-10-09T04:49:28.120Z,17.70
2018-10-09T04:50:28.100Z,20.10
2018-10-09T04:51:28.029Z,20.80
2018-10-09T04:52:27.985Z,21.00
2018-10-09T04:53:27.946Z,19.00
2018-10-09T04:54:27.911Z,21.70
2018-10-09T04:55:27.869Z,19.20
2018-10-09T04:56:27.846Z,20.70
2018-10-09T04:57:27.783Z,22.60
2018-10-09T04:58:27.735Z,19.30
2018-10-09T04:59:27.695Z,20.90
2018-10-09T05:00:27.649Z,23.70
2018-10-09T05:01:27.630Z,21.40
2018-10-09T05:02:27.597Z,19.20
2018-10-09T05:03:27.529Z,21.50
2018-10-09T05:04:27.487Z,22.20
2018-10-09T05:05:27.438Z,21.40
2018-10-09T05:06:27.424Z,19.20
2018-10-09T05:07:27.385Z,20.90
2018-10-09T05:08:27.317Z,20.90
2018-10-09T05:09:27.279Z,19.50
2018-10-09T05:10:27.222Z,25.30
2018-10-09T05:11:27.206Z,18.60
2018-10-09T05:12:27.147Z,21.40
2018-10-09T05:13:27.105Z,21.90
2018-10-09T05:14:27.055Z,19.40
2018-10-09T05:15:27.014Z,20.50
2018-10-09T05:16:26.998Z,19.40
2018-10-09T05:17:26.952Z,20.40
2018-10-09T05:18:26.895Z,23.60
2018-10-09T05:19:26.851Z,32.50
2018-10-09T05:20:26.799Z,19.50
2018-10-09T05:21:26.756Z,25.30
2018-10-09T05:22:26.748Z,20.60
2018-10-09T05:23:26.680Z,21.70
2018-10-09T05:24:26.634Z,18.90
2018-10-09T05:25:26.590Z,21.80
2018-10-09T05:26:26.543Z,20.50
2018-10-09T05:27:26.523Z,19.40
2018-10-09T05:28:26.484Z,20.40
2018-10-09T05:29:26.417Z,20.80
2018-10-09T05:30:26.379Z,18.50
2018-10-09T05:31:26.357Z,21.00
2018-10-09T05:32:26.296Z,21.80
2018-10-09T05:33:26.280Z,24.20
2018-10-09T05:34:26.204Z,23.90
2018-10-09T05:35:26.161Z,22.10
2018-10-09T05:36:26.123Z,24.30
2018-10-09T05:37:26.110Z,21.10
2018-10-09T05:38:26.033Z,21.10
2018-10-09T05:39:25.992Z,21.30
2018-10-09T05:40:25.949Z,26.50
2018-10-09T05:41:25.904Z,19.40
2018-10-09T05:42:25.868Z,20.80
2018-10-09T05:43:25.850Z,15.40
2018-10-09T05:44:25.886Z,15.40
2018-10-09T05:45:25.745Z,17.10
2018-10-09T05:46:25.689Z,15.90
2018-10-09T05:47:25.646Z,17.10
2018-10-09T05:48:25.633Z,15.50
2018-10-09T05:49:25.563Z,15.70
2018-10-09T05:50:25.529Z,14.20
2018-10-09T05:51:25.483Z,14.10
2018-10-09T05:52:25.438Z,13.60
2018-10-09T05:53:25.389Z,14.80
2018-10-09T05:54:25.381Z,14.70
2018-10-09T05:55:25.312Z,13.40
2018-10-09T05:56:25.271Z,14.10
2018-10-09T05:57:25.227Z,14.60
2018-10-09T05:58:25.176Z,13.90
2018-10-09T05:59:25.162Z,13.50
2018-10-09T06:00:25.093Z,12.70
2018-10-09T06:01:25.051Z,13.70
2018-10-09T06:02:25.012Z,15.20
2018-10-09T06:03:24.976Z,13.50
2018-10-09T06:04:24.930Z,12.90
2018-10-09T06:05:24.911Z,14.50
2018-10-09T06:06:24.836Z,15.20
2018-10-09T06:07:24.800Z,14.50
2018-10-09T06:08:24.760Z,15.00
2018-10-09T06:09:24.718Z,15.60
2018-10-09T06:10:24.694Z,15.80
2018-10-09T06:11:24.624Z,14.60
2018-10-09T06:12:24.584Z,13.80
2018-10-09T06:13:24.541Z,18.90
2018-10-09T06:14:24.526Z,14.80
2018-10-09T06:15:24.481Z,14.50
2018-10-09T06:16:24.419Z,14.20
2018-10-09T06:17:24.381Z,16.20
2018-10-09T06:18:24.333Z,16.30
2018-10-09T06:19:24.311Z,15.20
2018-10-09T06:20:24.244Z,13.40
2018-10-09T06:21:24.202Z,16.00
2018-10-09T06:22:24.193Z,13.50
2018-10-09T06:23:24.124Z,14.50
2018-10-09T06:24:24.103Z,13.60
2018-10-09T06:25:24.034Z,15.30
2018-10-09T06:26:24.000Z,13.10
2018-10-09T06:27:23.953Z,14.90
2018-10-09T06:28:23.939Z,14.60
2018-10-09T06:29:23.873Z,14.90
2018-10-09T06:30:23.848Z,13.00
2018-10-09T06:31:23.805Z,14.00
2018-10-09T06:32:23.738Z,14.90
2018-10-09T06:33:23.701Z,15.10
2018-10-09T06:34:23.662Z,14.60
2018-10-09T06:35:23.623Z,14.40
2018-10-09T06:36:23.607Z,13.50
2018-10-09T06:37:23.602Z,13.50
2018-10-09T06:38:23.491Z,13.40
2018-10-09T06:39:23.453Z,15.10
2018-10-09T06:40:23.413Z,13.90
2018-10-09T06:41:23.397Z,13.60
2018-10-09T06:42:23.323Z,15.00
2018-10-09T06:43:23.282Z,13.20
2018-10-09T06:44:23.236Z,14.00
2018-10-09T06:45:23.200Z,14.20
2018-10-09T06:46:23.184Z,13.90
2018-10-09T06:47:23.150Z,13.00
2018-10-09T06:48:23.082Z,12.40
2018-10-09T06:49:23.039Z,14.60
2018-10-09T06:50:22.993Z,12.30
2018-10-09T06:51:22.975Z,15.10
2018-10-09T06:52:22.906Z,13.40
2018-10-09T06:53:22.933Z,14.20
2018-10-09T06:54:22.841Z,14.30
2018-10-09T06:55:22.792Z,13.10
2018-10-09T06:56:22.769Z,14.10
2018-10-09T06:57:22.704Z,15.00
2018-10-09T06:58:22.673Z,14.50
2018-10-09T06:59:22.630Z,13.80
2018-10-09T07:00:22.683Z,13.60
2018-10-09T07:01:22.553Z,14.90
2018-10-09T07:02:22.503Z,14.50
2018-10-09T07:03:22.489Z,15.10
2018-10-09T07:04:22.427Z,15.30
2018-10-09T07:05:22.384Z,15.50
2018-10-09T07:06:22.348Z,17.80
2018-10-09T07:07:22.335Z,16.10
2018-10-09T07:08:22.297Z,18.50
2018-10-09T07:09:22.299Z,17.40
2018-10-09T07:10:22.186Z,17.60
2018-10-09T07:11:22.227Z,18.70
2018-10-09T07:12:22.108Z,18.80
2018-10-09T07:13:22.068Z,18.00
2018-10-09T07:14:22.055Z,16.50
2018-10-09T07:15:21.985Z,17.70
2018-10-09T07:16:21.946Z,19.30
2018-10-09T07:17:21.904Z,19.10
2018-10-09T07:18:21.870Z,18.50
2018-10-09T07:19:21.829Z,19.20
2018-10-09T07:20:21.811Z,19.40
2018-10-09T07:21:21.750Z,17.90
2018-10-09T07:22:21.705Z,18.60
2018-10-09T07:23:21.662Z,16.30
2018-10-09T07:24:21.627Z,16.60
2018-10-09T07:25:21.608Z,15.10
2018-10-09T07:26:21.555Z,16.50
2018-10-09T07:27:21.515Z,18.20
2018-10-09T07:28:21.466Z,15.20
2018-10-09T07:29:21.429Z,15.30
2018-10-09T07:30:21.420Z,15.30
2018-10-09T07:31:21.360Z,16.00
2018-10-09T07:32:21.340Z,17.40
2018-10-09T07:33:21.280Z,16.20
2018-10-09T07:34:21.233Z,14.90
2018-10-09T07:35:21.219Z,17.90
2018-10-09T07:36:21.164Z,16.70
2018-10-09T07:37:21.174Z,15.00
2018-10-09T07:38:21.114Z,15.70
2018-10-09T07:39:21.051Z,14.70
2018-10-09T07:40:21.013Z,15.10
2018-10-09T07:41:20.977Z,15.70
2018-10-09T07:42:20.932Z,17.80
2018-10-09T07:43:20.918Z,16.50
2018-10-09T07:44:20.947Z,18.40
2018-10-09T07:45:20.849Z,16.10
2018-10-09T07:46:20.779Z,18.90
2018-10-09T07:47:20.746Z,19.00
2018-10-09T07:48:20.733Z,17.60
2018-10-09T07:49:20.668Z,17.40
2018-10-09T07:50:20.662Z,18.10
2018-10-09T07:51:20.600Z,16.40
2018-10-09T07:52:20.623Z,19.60
2018-10-09T07:53:20.532Z,17.90
2018-10-09T07:54:20.481Z,17.10
2018-10-09T07:55:20.467Z,17.50
2018-10-09T07:56:20.402Z,16.00
2018-10-09T07:57:20.367Z,18.90
2018-10-09T07:58:20.336Z,17.50
2018-10-09T07:59:20.300Z,17.30
2018-10-09T08:00:20.276Z,18.80
2018-10-09T08:01:20.216Z,18.70
2018-10-09T08:02:20.182Z,19.10
2018-10-09T08:03:20.146Z,19.00
2018-10-09T08:04:20.106Z,18.20
2018-10-09T08:05:20.089Z,17.50
2018-10-09T08:06:20.024Z,20.70
2018-10-09T08:07:19.985Z,20.90
2018-10-09T08:08:19.943Z,20.80
2018-10-09T08:09:19.928Z,20.10
2018-10-09T08:10:19.948Z,18.60
2018-10-09T08:11:19.841Z,19.00
2018-10-09T08:12:19.798Z,19.50
2018-10-09T08:13:19.758Z,21.50
2018-10-09T08:14:19.715Z,20.10
2018-10-09T08:15:19.700Z,18.40
2018-10-09T08:16:19.660Z,18.30
2018-10-09T08:17:19.606Z,18.20
2018-10-09T08:18:19.562Z,20.10
2018-10-09T08:19:19.524Z,18.00
2018-10-09T08:20:19.510Z,18.00
2018-10-09T08:21:19.447Z,18.00
2018-10-09T08:22:19.466Z,17.80
2018-10-09T08:23:19.379Z,17.70
2018-10-09T08:24:19.343Z,16.10
2018-10-09T08:25:19.307Z,18.50
2018-10-09T08:26:19.258Z,17.80
2018-10-09T08:27:19.249Z,15.70
2018-10-09T08:28:19.188Z,15.40
2018-10-09T08:29:19.146Z,16.10
2018-10-09T08:30:19.118Z,16.20
2018-10-09T08:31:19.082Z,18.30
2018-10-09T08:32:19.098Z,17.20
2018-10-09T08:33:19.034Z,16.10
2018-10-09T08:34:18.995Z,16.30
2018-10-09T08:35:18.965Z,16.00
2018-10-09T08:36:18.908Z,16.60
2018-10-09T08:37:18.871Z,15.80
2018-10-09T08:38:18.851Z,16.00
2018-10-09T08:39:18.790Z,15.90
2018-10-09T08:40:18.768Z,15.60
2018-10-09T08:41:18.765Z,14.70
2018-10-09T08:42:18.692Z,17.00
2018-10-09T08:43:18.655Z,15.40
2018-10-09T08:44:18.621Z,14.30
2018-10-09T08:45:18.587Z,16.10
2018-10-09T08:46:18.581Z,15.70
2018-10-09T08:47:18.511Z,16.70
2018-10-09T08:48:18.483Z,16.40
2018-10-09T08:49:18.449Z,15.70
2018-10-09T08:50:18.409Z,15.30
2018-10-09T08:51:18.380Z,17.30
2018-10-09T08:52:18.361Z,16.60
2018-10-09T08:53:18.307Z,16.30
2018-10-09T08:54:18.278Z,17.00
2018-10-09T08:55:18.271Z,17.60
2018-10-09T08:56:18.212Z,17.10
2018-10-09T08:57:18.223Z,17.20
2018-10-09T08:58:18.137Z,16.20
2018-10-09T08:59:18.104Z,15.60
2018-10-09T09:00:18.069Z,17.70
2018-10-09T09:01:18.057Z,16.60
2018-10-09T09:02:18.008Z,16.30
2018-10-09T09:03:17.976Z,18.20
2018-10-09T09:04:17.938Z,17.60
2018-10-09T09:05:17.925Z,15.50
2018-10-09T09:06:17.872Z,17.10
2018-10-09T09:07:17.841Z,15.70
2018-10-09T09:08:17.810Z,17.20
2018-10-09T09:09:17.775Z,16.80
2018-10-09T09:10:17.763Z,16.80
2018-10-09T09:11:17.701Z,17.50
2018-10-09T09:12:17.666Z,16.50
2018-10-09T09:13:17.634Z,16.90
2018-10-09T09:14:17.607Z,17.40
2018-10-09T09:15:17.631Z,17.10
2018-10-09T09:16:17.571Z,19.90
2018-10-09T09:17:17.509Z,18.00
2018-10-09T09:18:17.471Z,16.90
2018-10-09T09:19:17.433Z,16.70
2018-10-09T09:20:17.409Z,18.30
2018-10-09T09:21:17.504Z,16.80
2018-10-09T09:22:17.336Z,17.20
2018-10-09T09:23:17.306Z,16.80
2018-10-09T09:24:17.270Z,17.50
2018-10-09T09:25:17.240Z,16.60
2018-10-09T09:26:17.308Z,16.90
2018-10-09T09:27:17.312Z,17.70
2018-10-09T09:28:17.149Z,17.90
2018-10-09T09:29:17.139Z,18.30
2018-10-09T09:30:17.076Z,17.70
2018-10-09T09:31:17.044Z,17.80
2018-10-09T09:32:17.014Z,19.40
2018-10-09T09:33:17.046Z,18.00
2018-10-09T09:34:16.979Z,18.80
2018-10-09T09:35:16.918Z,18.80
2018-10-09T09:36:16.881Z,18.60
2018-10-09T09:37:16.854Z,21.80
2018-10-09T09:38:16.823Z,19.40
2018-10-09T09:39:16.813Z,20.30
2018-10-09T09:40:16.781Z,22.50
2018-10-09T09:41:16.723Z,19.20
2018-10-09T09:42:16.683Z,20.20
2018-10-09T09:43:16.655Z,18.50
2018-10-09T09:44:16.633Z,20.00
2018-10-09T09:45:16.577Z,18.00
2018-10-09T09:46:16.643Z,18.00
2018-10-09T09:47:16.521Z,19.70
2018-10-09T09:48:16.484Z,17.60
2018-10-09T09:49:16.475Z,17.80
2018-10-09T09:50:16.439Z,19.60
2018-10-09T09:51:16.379Z,19.10
2018-10-09T09:52:16.448Z,19.20
2018-10-09T09:53:16.319Z,18.20
2018-10-09T09:54:16.304Z,19.80
2018-10-09T09:55:16.245Z,18.00
2018-10-09T09:56:16.208Z,19.10
2018-10-09T09:57:16.176Z,19.60
2018-10-09T09:58:16.340Z,18.10
2018-10-09T09:59:16.135Z,19.40
2018-10-09T10:00:16.106Z,18.70
2018-10-09T10:01:16.049Z,18.20
2018-10-09T10:02:16.007Z,20.40
2018-10-09T10:03:15.974Z,18.50
2018-10-09T10:04:15.942Z,19.30
2018-10-09T10:05:15.928Z,21.80
2018-10-09T10:06:15.881Z,20.00
2018-10-09T10:07:15.848Z,18.50
2018-10-09T10:08:15.808Z,21.50
2018-10-09T10:09:15.805Z,21.10
2018-10-09T10:10:15.767Z,18.80
2018-10-09T10:11:15.738Z,20.30
2018-10-09T10:12:15.680Z,19.90
2018-10-09T10:13:15.649Z,20.10
2018-10-09T10:14:15.607Z,18.50
2018-10-09T10:15:15.592Z,20.70
2018-10-09T10:16:15.535Z,20.80
2018-10-09T10:17:15.508Z,19.90
2018-10-09T10:18:15.482Z,17.90
2018-10-09T10:19:15.444Z,19.60
2018-10-09T10:20:15.430Z,20.80
2018-10-09T10:21:15.408Z,19.00
2018-10-09T10:22:15.339Z,20.80
2018-10-09T10:23:15.329Z,18.50
2018-10-09T10:24:15.276Z,19.10
2018-10-09T10:25:15.243Z,18.80
2018-10-09T10:26:15.204Z,18.20
2018-10-09T10:27:15.169Z,18.70
2018-10-09T10:28:15.163Z,18.70
2018-10-09T10:29:15.162Z,17.90
2018-10-09T10:30:15.081Z,18.00
2018-10-09T10:31:15.050Z,20.00
2018-10-09T10:32:15.018Z,21.40
2018-10-09T10:33:14.981Z,19.20
2018-10-09T10:34:14.965Z,20.30
2018-10-09T10:35:14.909Z,19.20
2018-10-09T10:36:14.879Z,19.70
2018-10-09T10:37:14.856Z,21.00
2018-10-09T10:38:14.820Z,17.40
2018-10-09T10:39:14.811Z,20.30
2018-10-09T10:40:14.749Z,17.70
2018-10-09T10:41:14.716Z,17.80
2018-10-09T10:42:14.753Z,18.30
2018-10-09T10:43:14.665Z,16.90
2018-10-09T10:44:14.654Z,19.50
2018-10-09T10:45:14.596Z,19.20
2018-10-09T10:46:14.559Z,18.10
2018-10-09T10:47:14.556Z,21.00
2018-10-09T10:48:14.494Z,17.00
2018-10-09T10:49:14.521Z,18.40
2018-10-09T10:50:14.438Z,16.50
2018-10-09T10:51:14.407Z,17.10
2018-10-09T10:52:14.399Z,18.30
2018-10-09T10:53:14.344Z,19.30
2018-10-09T10:54:14.305Z,18.30
2018-10-09T10:55:14.274Z,18.40
2018-10-09T10:56:14.248Z,20.10
2018-10-09T10:57:14.237Z,18.20
2018-10-09T10:58:14.175Z,19.90
2018-10-09T10:59:14.167Z,17.60
2018-10-09T11:00:14.113Z,17.00
2018-10-09T11:01:14.111Z,18.00
2018-10-09T11:02:14.082Z,18.40
2018-10-09T11:03:14.026Z,17.20
2018-10-09T11:04:13.989Z,18.80
2018-10-09T11:05:13.954Z,16.30
2018-10-09T11:06:13.922Z,17.30
2018-10-09T11:07:13.884Z,17.50
2018-10-09T11:08:13.875Z,17.40
2018-10-09T11:09:13.818Z,18.60
2018-10-09T11:10:13.823Z,16.60
2018-10-09T11:11:13.762Z,16.90
2018-10-09T11:12:13.727Z,18.60
2018-10-09T11:13:13.719Z,16.30
2018-10-09T11:14:13.665Z,17.60
2018-10-09T11:15:13.637Z,18.70
2018-10-09T11:16:13.607Z,16.80
2018-10-09T11:17:13.573Z,17.90
2018-10-09T11:18:13.535Z,17.20
2018-10-09T11:19:13.525Z,19.10
2018-10-09T11:20:13.471Z,16.10
2018-10-09T11:21:13.549Z,17.40
2018-10-09T11:22:13.414Z,16.90
2018-10-09T11:23:13.385Z,17.40
2018-10-09T11:24:13.378Z,18.90
2018-10-09T11:25:13.318Z,18.60
2018-10-09T11:26:13.280Z,17.10
2018-10-09T11:27:13.244Z,19.30
2018-10-09T11:28:13.219Z,17.40
2018-10-09T11:29:13.217Z,18.30
2018-10-09T11:30:13.149Z,17.30
2018-10-09T11:31:13.119Z,18.00
2018-10-09T11:32:13.078Z,17.60
2018-10-09T11:33:13.046Z,17.90
2018-10-09T11:34:13.024Z,18.70
2018-10-09T11:35:13.008Z,17.70
2018-10-09T11:36:13.000Z,18.50
2018-10-09T11:37:12.922Z,17.00
2018-10-09T11:38:12.877Z,17.30
2018-10-09T11:39:12.850Z,17.60
2018-10-09T11:40:12.838Z,16.90
2018-10-09T11:41:12.785Z,17.40
2018-10-09T11:42:12.751Z,16.50
2018-10-09T11:43:12.748Z,17.60
2018-10-09T11:44:12.680Z,18.80
2018-10-09T11:45:12.671Z,16.50
2018-10-09T11:46:12.622Z,15.40
2018-10-09T11:47:12.609Z,17.80
2018-10-09T11:48:12.557Z,17.10
2018-10-09T11:49:12.522Z,17.50
2018-10-09T11:50:12.510Z,17.60
2018-10-09T11:51:12.449Z,16.50
2018-10-09T11:52:12.419Z,16.20
2018-10-09T11:53:12.384Z,18.40
2018-10-09T11:54:12.359Z,17.40
2018-10-09T11:55:12.336Z,16.50
2018-10-09T11:56:12.312Z,16.90
2018-10-09T11:57:12.259Z,17.90
2018-10-09T11:58:12.222Z,17.00
2018-10-09T11:59:12.263Z,17.00
2018-10-09T12:00:12.164Z,15.70
2018-10-09T12:01:12.161Z,22.50
2018-10-09T12:02:12.096Z,16.50
2018-10-09T12:03:12.063Z,17.80
2018-10-09T12:04:12.031Z,19.50
2018-10-09T12:05:11.999Z,19.50
2018-10-09T12:06:11.974Z,18.00
2018-10-09T12:07:11.967Z,17.40
2018-10-09T12:08:11.951Z,17.50
2018-10-09T12:09:11.881Z,18.90
2018-10-09T12:10:11.841Z,19.70
2018-10-09T12:11:11.811Z,18.80
2018-10-09T12:12:11.804Z,18.00
2018-10-09T12:13:11.746Z,16.90
2018-10-09T12:14:11.721Z,18.40
2018-10-09T12:15:11.691Z,19.20
2018-10-09T12:16:11.653Z,17.20
2018-10-09T12:17:11.644Z,19.60
2018-10-09T12:18:11.598Z,18.30
2018-10-09T12:19:11.568Z,21.80
2018-10-09T12:20:11.537Z,19.80
2018-10-09T12:21:11.505Z,20.50
2018-10-09T12:22:11.491Z,18.70
2018-10-09T12:23:11.435Z,18.10
2018-10-09T12:24:11.406Z,17.60
2018-10-09T12:25:11.370Z,19.00
2018-10-09T12:26:11.353Z,17.90
2018-10-09T12:27:11.408Z,17.90
2018-10-09T12:28:11.287Z,18.60
2018-10-09T12:29:11.257Z,18.90
2018-10-09T12:30:11.222Z,17.20
2018-10-09T12:31:11.192Z,18.40
2018-10-09T12:32:11.189Z,18.40
2018-10-09T12:33:11.139Z,17.80
2018-10-09T12:34:11.122Z,18.70
2018-10-09T12:35:11.068Z,18.90
2018-10-09T12:36:11.100Z,17.60
2018-10-09T12:37:11.034Z,16.90
2018-10-09T12:38:11.032Z,17.40
2018-10-09T12:39:10.954Z,15.60
2018-10-09T12:40:10.925Z,18.70
2018-10-09T12:41:10.893Z,17.80
2018-10-09T12:42:10.857Z,19.80
2018-10-09T12:43:10.846Z,17.60
2018-10-09T12:44:10.800Z,17.00
2018-10-09T12:45:10.764Z,18.70
2018-10-09T12:46:10.734Z,19.20
2018-10-09T12:47:10.709Z,19.70
2018-10-09T12:48:10.692Z,19.90
2018-10-09T12:49:10.634Z,20.00
2018-10-09T12:50:10.616Z,18.30
2018-10-09T12:51:10.589Z,18.20
2018-10-09T12:52:10.557Z,16.30